CheckWX is a tool to help pilots better visualize weather data.  It is not intended as a substitute for an official pre-flight weather briefing.

09:24:14 UTC

EDHL TAF
Lübeck Blankensee Airport
Lübeck, Germany
TAF EDHL 140800Z 1409/1418 12006KT CAVOK

Nov-14@
09:00 UTC

Nov-14 @ 09:00 UTC

Nov-14@
18:00 UTC

Nov-14 @ 18:00 UTC

TAF EDHL 140800Z 1409/1418 12006KT CAVOK
Wind
  • 120° at 6 KTS
Conditions
No significant weather
Cloud Levels
  • No significant clouds